Terminal Aerodrome Forecast
Issued by NWS

Home | Current Version | Previous Version | Text Only | Print | Product List | Glossary On
Versions: 1 2 3 4 5 6 7 8 9 10 11 12 13 14 15 16 17 18 19 20 21 22
000
FTUS42 KRAH 192331
TAFRWI
TAF
KRWI 192331Z 2000/2024 VRB03KT P6SM OVC250
     FM201200 06003KT P6SM OVC120
     FM201600 06005KT P6SM SCT025 OVC050=

USA.gov is the U.S. government's official web portal to all federal, state and local government web resources and services.